createdAt,value
2018-05-26T00:00:42.594Z,6.20
2018-05-26T00:03:11.441Z,6.80
2018-05-26T00:05:40.503Z,7.40
2018-05-26T00:08:09.544Z,5.90
2018-05-26T00:10:38.725Z,6.83
2018-05-26T00:13:07.821Z,7.10
2018-05-26T00:15:36.820Z,6.30
2018-05-26T00:18:06.420Z,7.43
2018-05-26T00:20:35.406Z,6.40
2018-05-26T00:23:04.614Z,7.43
2018-05-26T00:25:33.579Z,7.40
2018-05-26T00:28:02.307Z,6.83
2018-05-26T00:30:30.976Z,7.47
2018-05-26T00:33:00.045Z,7.13
2018-05-26T00:35:28.810Z,7.33
2018-05-26T00:37:58.201Z,6.90
2018-05-26T00:40:27.053Z,6.80
2018-05-26T00:42:55.744Z,8.13
2018-05-26T00:45:24.777Z,7.43
2018-05-26T00:47:53.931Z,6.47
2018-05-26T00:50:22.960Z,7.37
2018-05-26T00:52:52.027Z,10.70
2018-05-26T00:55:20.718Z,8.97
2018-05-26T00:57:49.860Z,6.97
2018-05-26T01:00:18.531Z,9.40
2018-05-26T01:02:47.685Z,10.60
2018-05-26T01:05:16.781Z,9.07
2018-05-26T01:07:45.780Z,9.47
2018-05-26T01:10:14.558Z,12.63
2018-05-26T01:12:43.590Z,6.83
2018-05-26T01:15:12.752Z,6.20
2018-05-26T01:17:41.701Z,6.43
2018-05-26T01:20:10.414Z,7.47
2018-05-26T01:22:39.633Z,6.27
2018-05-26T01:25:08.648Z,6.63
2018-05-26T01:27:38.228Z,8.47
2018-05-26T01:30:07.325Z,7.93
2018-05-26T01:32:36.419Z,10.27
2018-05-26T01:35:05.444Z,7.53
2018-05-26T01:37:34.609Z,6.97
2018-05-26T01:40:03.551Z,7.03
2018-05-26T01:42:32.393Z,7.30
2018-05-26T01:45:01.338Z,7.40
2018-05-26T01:47:30.050Z,8.13
2018-05-26T01:49:58.745Z,9.30
2018-05-26T01:52:27.548Z,9.33
2018-05-26T01:54:56.554Z,6.87
2018-05-26T01:57:25.248Z,6.63
2018-05-26T01:59:54.012Z,5.77
2018-05-26T02:02:23.004Z,6.37
2018-05-26T02:04:51.699Z,9.27
2018-05-26T02:07:20.364Z,5.50
2018-05-26T02:09:49.154Z,6.53
2018-05-26T02:12:18.262Z,6.07
2018-05-26T02:14:47.361Z,8.37
2018-05-26T02:17:16.281Z,7.10
2018-05-26T02:19:45.023Z,6.23
2018-05-26T02:22:13.821Z,7.07
2018-05-26T02:24:42.459Z,6.20
2018-05-26T02:33:54.980Z,9.47
2018-05-26T02:36:24.093Z,6.93
2018-05-26T02:38:53.257Z,7.07
2018-05-26T02:41:22.202Z,9.13
2018-05-26T02:43:50.946Z,7.30
2018-05-26T02:46:19.988Z,7.87
2018-05-26T02:48:48.805Z,7.80
2018-05-26T02:51:17.916Z,10.23
2018-05-26T02:53:46.539Z,9.37
2018-05-26T02:56:15.279Z,8.70
2018-05-26T02:58:44.382Z,11.37
2018-05-26T03:01:13.366Z,8.33
2018-05-26T03:03:42.571Z,7.33
2018-05-26T03:06:17.322Z,9.20
2018-05-26T03:08:51.739Z,7.03
2018-05-26T03:11:26.156Z,5.67
2018-05-26T03:14:00.951Z,5.07
2018-05-26T03:16:30.578Z,4.20
2018-05-26T03:18:59.559Z,4.93
2018-05-26T03:21:28.249Z,6.53
2018-05-26T03:23:57.454Z,5.37
2018-05-26T03:26:26.435Z,3.90
2018-05-26T03:28:55.035Z,4.97
2018-05-26T03:31:23.919Z,6.20
2018-05-26T03:33:52.587Z,6.50
2018-05-26T03:36:21.771Z,5.20
2018-05-26T03:38:50.797Z,4.70
2018-05-26T03:41:19.813Z,7.37
2018-05-26T03:43:48.481Z,5.33
2018-05-26T03:46:17.226Z,6.13
2018-05-26T03:48:46.264Z,5.60
2018-05-26T03:51:15.455Z,4.77
2018-05-26T03:53:44.550Z,6.77
2018-05-26T03:56:25.443Z,4.73
2018-05-26T04:01:57.585Z,4.60
2018-05-26T04:04:26.804Z,6.13
2018-05-26T04:06:55.821Z,5.37
2018-05-26T04:09:24.491Z,4.23
2018-05-26T04:11:54.094Z,5.13
2018-05-26T04:14:23.103Z,5.47
2018-05-26T04:16:52.191Z,4.90
2018-05-26T04:19:20.881Z,4.17
2018-05-26T04:21:49.393Z,5.07
2018-05-26T04:24:17.934Z,4.40
2018-05-26T04:26:47.012Z,6.73
2018-05-26T04:29:16.051Z,3.67
2018-05-26T04:31:45.220Z,4.03
2018-05-26T04:34:14.238Z,8.23
2018-05-26T04:36:43.253Z,5.50
2018-05-26T04:39:12.096Z,4.20
2018-05-26T04:41:41.116Z,6.27
2018-05-26T04:44:09.649Z,5.67
2018-05-26T04:46:39.588Z,6.63
2018-05-26T04:49:08.481Z,5.40
2018-05-26T04:51:37.459Z,4.03
2018-05-26T04:54:06.182Z,5.97
2018-05-26T04:56:35.269Z,3.60
2018-05-26T04:59:04.361Z,4.07
2018-05-26T05:01:33.052Z,4.60
2018-05-26T05:04:01.823Z,4.60
2018-05-26T05:06:30.917Z,5.20
2018-05-26T05:09:00.016Z,4.73
2018-05-26T05:11:28.617Z,5.33
2018-05-26T05:13:57.641Z,5.60
2018-05-26T05:16:26.388Z,4.83
2018-05-26T05:18:55.402Z,6.83
2018-05-26T05:21:24.264Z,4.53
2018-05-26T05:23:53.288Z,4.63
2018-05-26T05:26:22.453Z,5.33
2018-05-26T05:28:51.961Z,5.57
2018-05-26T05:31:21.058Z,5.47
2018-05-26T05:33:50.149Z,5.37
2018-05-26T05:36:19.656Z,5.30
2018-05-26T05:38:48.175Z,6.73
2018-05-26T05:41:17.029Z,4.90
2018-05-26T05:43:46.124Z,7.80
2018-05-26T05:46:15.068Z,6.10
2018-05-26T05:48:43.785Z,6.07
2018-05-26T05:51:14.808Z,3.63
2018-05-26T05:53:44.873Z,4.53
2018-05-26T05:56:13.585Z,8.03
2018-05-26T05:58:43.156Z,5.20
2018-05-26T06:01:12.173Z,4.00
2018-05-26T06:03:40.841Z,5.60
2018-05-26T06:06:09.884Z,7.17
2018-05-26T06:08:38.979Z,8.00
2018-05-26T06:11:07.816Z,6.73
2018-05-26T06:13:37.314Z,5.87
2018-05-26T06:16:06.006Z,6.80
2018-05-26T06:18:34.493Z,4.50
2018-05-26T06:21:03.380Z,6.30
2018-05-26T06:23:32.033Z,5.30
2018-05-26T06:26:01.159Z,6.93
2018-05-26T06:28:29.783Z,5.80
2018-05-26T06:30:58.269Z,6.80
2018-05-26T06:33:26.788Z,7.43
2018-05-26T06:35:55.314Z,5.60
2018-05-26T06:38:23.884Z,6.37
2018-05-26T06:40:52.391Z,5.10
2018-05-26T06:43:20.974Z,5.73
2018-05-26T06:45:49.467Z,5.47
2018-05-26T06:48:17.997Z,6.97
2018-05-26T06:50:47.270Z,8.13
2018-05-26T06:53:16.520Z,4.53
2018-05-26T06:55:45.395Z,6.83
2018-05-26T06:58:14.722Z,6.33
2018-05-26T07:00:43.249Z,7.07
2018-05-26T07:03:13.009Z,7.70
2018-05-26T07:05:41.563Z,5.57
2018-05-26T07:08:10.066Z,5.87
2018-05-26T07:10:39.144Z,6.57
2018-05-26T07:13:07.628Z,5.93
2018-05-26T07:15:36.395Z,7.30
2018-05-26T07:18:05.356Z,8.30
2018-05-26T07:20:34.206Z,5.83
2018-05-26T07:23:02.693Z,7.90
2018-05-26T07:25:31.614Z,6.33
2018-05-26T07:28:00.684Z,6.10
2018-05-26T07:30:29.452Z,7.27
2018-05-26T07:33:00.180Z,5.07
2018-05-26T07:35:30.081Z,7.13
2018-05-26T07:37:58.763Z,8.03
2018-05-26T07:40:27.524Z,5.50
2018-05-26T07:42:56.012Z,4.97
2018-05-26T07:45:25.102Z,5.70
2018-05-26T07:47:53.704Z,7.53
2018-05-26T07:50:22.620Z,4.90
2018-05-26T07:52:51.719Z,5.57
2018-05-26T07:55:20.970Z,6.43
2018-05-26T07:57:51.040Z,4.43
2018-05-26T08:00:20.390Z,7.60
2018-05-26T08:02:49.532Z,5.17
2018-05-26T08:05:19.584Z,5.23
2018-05-26T08:07:48.284Z,7.00
2018-05-26T08:10:17.435Z,4.57
2018-05-26T08:12:46.093Z,5.13
2018-05-26T08:15:14.811Z,7.77
2018-05-26T08:17:43.305Z,3.80
2018-05-26T08:20:12.072Z,4.70
2018-05-26T08:22:40.861Z,6.03
2018-05-26T08:25:09.881Z,4.13
2018-05-26T08:27:38.479Z,4.13
2018-05-26T08:30:07.784Z,6.10
2018-05-26T08:32:36.807Z,4.80
2018-05-26T08:35:05.314Z,5.90
2018-05-26T08:37:34.212Z,5.93
2018-05-26T08:40:02.883Z,3.43
2018-05-26T08:42:31.420Z,4.10
2018-05-26T08:45:00.267Z,5.50
2018-05-26T08:47:29.370Z,8.20
2018-05-26T08:49:57.855Z,6.27
2018-05-26T08:52:26.735Z,5.70
2018-05-26T08:54:55.355Z,5.30
2018-05-26T08:57:24.032Z,6.40
2018-05-26T08:59:52.542Z,6.20
2018-05-26T09:02:21.407Z,7.00
2018-05-26T09:04:50.047Z,5.17
2018-05-26T09:07:19.326Z,6.10
2018-05-26T09:09:47.828Z,4.40
2018-05-26T09:12:17.079Z,4.90
2018-05-26T09:14:45.606Z,3.77
2018-05-26T09:17:14.694Z,4.70
2018-05-26T09:19:43.410Z,5.07
2018-05-26T09:22:12.579Z,5.10
2018-05-26T09:24:41.078Z,6.13
2018-05-26T09:27:09.687Z,4.53
2018-05-26T09:29:38.183Z,6.33
2018-05-26T09:32:06.689Z,6.03
2018-05-26T09:34:35.989Z,7.20
2018-05-26T09:37:04.924Z,5.73
2018-05-26T09:39:33.467Z,5.60
2018-05-26T09:42:01.957Z,7.00
2018-05-26T09:44:30.714Z,4.07
2018-05-26T09:46:59.181Z,5.40
2018-05-26T09:49:28.151Z,4.10
2018-05-26T09:51:56.842Z,3.43
2018-05-26T09:54:25.346Z,3.50
2018-05-26T09:56:53.949Z,3.67
2018-05-26T09:59:22.896Z,3.47
2018-05-26T10:01:51.389Z,5.23
2018-05-26T10:04:20.183Z,2.97
2018-05-26T10:06:49.363Z,5.97
2018-05-26T10:09:18.019Z,2.73
2018-05-26T10:11:48.263Z,3.67
2018-05-26T10:14:16.970Z,3.83
2018-05-26T10:16:45.738Z,2.97
2018-05-26T10:19:14.239Z,3.50
2018-05-26T10:21:42.763Z,2.87
2018-05-26T10:24:11.239Z,3.10
2018-05-26T10:26:39.980Z,3.57
2018-05-26T10:29:08.456Z,2.30
2018-05-26T10:31:38.116Z,1.90
2018-05-26T10:34:06.957Z,2.47
2018-05-26T10:36:36.057Z,2.57
2018-05-26T10:39:04.597Z,4.80
2018-05-26T10:41:33.113Z,2.37
2018-05-26T10:44:01.719Z,2.53
2018-05-26T10:46:30.345Z,4.90
2018-05-26T10:48:59.372Z,2.47
2018-05-26T10:51:28.156Z,2.77
2018-05-26T10:53:56.749Z,3.47
2018-05-26T10:56:25.357Z,2.50
2018-05-26T10:58:54.014Z,4.47
2018-05-26T11:01:22.486Z,3.37
2018-05-26T11:03:51.596Z,3.90
2018-05-26T11:06:20.121Z,3.83
2018-05-26T11:08:48.632Z,6.63
2018-05-26T11:11:17.168Z,3.67
2018-05-26T11:13:45.619Z,3.40
2018-05-26T11:16:15.045Z,4.17
2018-05-26T11:18:43.706Z,4.87
2018-05-26T11:21:12.163Z,3.47
2018-05-26T11:23:40.650Z,3.03
2018-05-26T11:26:09.185Z,5.83
2018-05-26T11:28:37.760Z,3.77
2018-05-26T11:31:07.579Z,4.20
2018-05-26T11:33:36.241Z,3.30
2018-05-26T11:36:04.728Z,3.93
2018-05-26T11:38:33.331Z,8.37
2018-05-26T11:41:02.297Z,3.20
2018-05-26T11:43:30.815Z,3.77
2018-05-26T11:45:59.389Z,5.90
2018-05-26T11:48:27.960Z,3.23
2018-05-26T11:50:56.973Z,5.17
2018-05-26T11:53:25.456Z,4.00
2018-05-26T11:55:54.205Z,6.33
2018-05-26T11:58:22.717Z,3.83
2018-05-26T12:00:52.518Z,6.43
2018-05-26T12:03:21.488Z,3.10
2018-05-26T12:05:50.381Z,4.23
2018-05-26T12:08:18.862Z,3.33
2018-05-26T12:10:48.548Z,5.20
2018-05-26T12:13:18.590Z,4.33
2018-05-26T12:15:47.571Z,5.73
2018-05-26T12:18:16.040Z,2.60
2018-05-26T12:20:44.602Z,3.57
2018-05-26T12:23:13.200Z,4.27
2018-05-26T12:25:41.920Z,5.50
2018-05-26T12:28:11.017Z,3.73
2018-05-26T12:30:39.837Z,4.07
2018-05-26T12:33:08.441Z,2.87
2018-05-26T12:35:37.412Z,3.90
2018-05-26T12:38:06.551Z,4.87
2018-05-26T12:40:35.158Z,4.03
2018-05-26T12:43:03.945Z,3.20
2018-05-26T12:45:33.048Z,3.93
2018-05-26T12:48:01.585Z,4.60
2018-05-26T12:50:30.851Z,3.53
2018-05-26T12:53:00.631Z,5.60
2018-05-26T12:55:29.348Z,4.07
2018-05-26T12:57:58.527Z,4.20
2018-05-26T13:00:27.510Z,4.03
2018-05-26T13:02:56.074Z,3.47
2018-05-26T13:05:24.985Z,4.03
2018-05-26T13:07:53.486Z,2.67
2018-05-26T13:10:22.018Z,2.40
2018-05-26T13:12:50.572Z,2.20
2018-05-26T13:15:19.041Z,2.00
2018-05-26T13:17:47.553Z,4.73
2018-05-26T13:20:16.067Z,3.43
2018-05-26T13:22:44.973Z,2.57
2018-05-26T13:25:13.588Z,2.23
2018-05-26T13:27:43.053Z,4.33
2018-05-26T13:30:11.656Z,3.20
2018-05-26T13:32:40.123Z,4.07
2018-05-26T13:35:08.635Z,2.00
2018-05-26T13:37:37.085Z,4.60
2018-05-26T13:40:06.182Z,4.60
2018-05-26T13:42:35.558Z,4.30
2018-05-26T13:45:04.119Z,2.40
2018-05-26T13:47:32.761Z,3.77
2018-05-26T13:50:02.035Z,5.17
2018-05-26T13:52:31.308Z,2.80
2018-05-26T13:55:00.274Z,9.00
2018-05-26T13:57:29.385Z,2.00
2018-05-26T13:59:57.928Z,2.80
2018-05-26T14:02:27.093Z,3.77
2018-05-26T14:04:56.426Z,4.90
2018-05-26T14:07:24.906Z,4.20
2018-05-26T14:09:53.623Z,2.07
2018-05-26T14:12:22.290Z,4.20
2018-05-26T14:14:50.802Z,3.23
2018-05-26T14:17:19.340Z,2.97
2018-05-26T14:19:48.435Z,3.57
2018-05-26T14:22:16.935Z,5.70
2018-05-26T14:24:46.127Z,3.47
2018-05-26T14:27:14.794Z,5.70
2018-05-26T14:29:44.071Z,5.53
2018-05-26T14:32:13.104Z,9.43
2018-05-26T14:34:41.577Z,3.43
2018-05-26T14:37:10.095Z,3.33
2018-05-26T14:39:38.564Z,3.13
2018-05-26T14:42:07.083Z,3.27
2018-05-26T14:44:35.603Z,3.30
2018-05-26T14:47:04.709Z,2.77
2018-05-26T14:49:33.476Z,2.93
2018-05-26T14:52:02.991Z,5.67
2018-05-26T14:54:31.984Z,2.30
2018-05-26T14:57:00.974Z,2.23
2018-05-26T14:59:29.869Z,3.40
2018-05-26T15:01:58.380Z,2.50
2018-05-26T15:04:27.129Z,4.63
2018-05-26T15:06:55.822Z,4.63
2018-05-26T15:09:25.025Z,2.83
2018-05-26T15:11:53.645Z,2.47
2018-05-26T15:14:22.725Z,2.70
2018-05-26T15:16:51.392Z,2.83
2018-05-26T15:19:20.069Z,3.13
2018-05-26T15:21:48.780Z,3.63
2018-05-26T15:24:17.469Z,5.23
2018-05-26T15:26:46.561Z,5.20
2018-05-26T15:29:16.145Z,4.00
2018-05-26T15:31:44.641Z,2.40
2018-05-26T15:34:13.122Z,3.40
2018-05-26T15:36:42.181Z,2.50
2018-05-26T15:39:11.302Z,3.97
2018-05-26T15:41:39.967Z,3.10
2018-05-26T15:44:08.982Z,2.37
2018-05-26T15:46:37.679Z,6.93
2018-05-26T15:49:06.447Z,3.43
2018-05-26T15:51:35.140Z,2.30
2018-05-26T15:54:04.033Z,3.43
2018-05-26T15:56:32.920Z,2.20
2018-05-26T15:59:01.609Z,4.80
2018-05-26T16:01:30.710Z,2.00
2018-05-26T16:03:59.592Z,2.97
2018-05-26T16:06:28.892Z,4.73
2018-05-26T16:08:57.908Z,3.53
2018-05-26T16:11:27.089Z,2.00
2018-05-26T16:13:56.179Z,1.80
2018-05-26T16:16:25.278Z,3.20
2018-05-26T16:18:54.228Z,3.93
2018-05-26T16:21:22.944Z,2.70
2018-05-26T16:23:51.661Z,4.20
2018-05-26T16:26:20.841Z,1.90
2018-05-26T16:28:49.529Z,3.07
2018-05-26T16:31:18.541Z,2.10
2018-05-26T16:33:47.102Z,3.77
2018-05-26T16:36:15.990Z,2.70
2018-05-26T16:38:44.967Z,2.80
2018-05-26T16:41:13.688Z,4.47
2018-05-26T16:43:42.873Z,1.93
2018-05-26T16:46:11.547Z,2.33
2018-05-26T16:48:40.651Z,2.73
